sensor_id;sensor_type;location;lat;lon;timestamp;P1;durP1;ratioP1;P2;durP2;ratioP2
21426;SDS011;10874;49.452;11.050;2023-12-29T00:01:53;7.53;;;4.07;;
21426;SDS011;10874;49.452;11.050;2023-12-29T00:04:21;4.57;;;3.97;;
21426;SDS011;10874;49.452;11.050;2023-12-29T00:06:48;5.43;;;4.20;;
21426;SDS011;10874;49.452;11.050;2023-12-29T00:09:25;4.77;;;3.60;;
21426;SDS011;10874;49.452;11.050;2023-12-29T00:11:52;3.73;;;3.33;;
21426;SDS011;10874;49.452;11.050;2023-12-29T00:14:21;3.20;;;2.90;;
21426;SDS011;10874;49.452;11.050;2023-12-29T00:16:47;3.37;;;3.07;;
21426;SDS011;10874;49.452;11.050;2023-12-29T00:19:14;5.30;;;4.00;;
21426;SDS011;10874;49.452;11.050;2023-12-29T00:21:41;3.60;;;3.10;;
21426;SDS011;10874;49.452;11.050;2023-12-29T00:24:08;4.07;;;3.30;;
21426;SDS011;10874;49.452;11.050;2023-12-29T00:26:35;4.00;;;3.30;;
21426;SDS011;10874;49.452;11.050;2023-12-29T00:29:02;4.37;;;3.47;;
21426;SDS011;10874;49.452;11.050;2023-12-29T00:31:29;4.10;;;3.00;;
21426;SDS011;10874;49.452;11.050;2023-12-29T00:33:56;4.23;;;2.60;;
21426;SDS011;10874;49.452;11.050;2023-12-29T00:36:24;3.27;;;2.93;;
21426;SDS011;10874;49.452;11.050;2023-12-29T00:38:51;4.20;;;3.23;;
21426;SDS011;10874;49.452;11.050;2023-12-29T00:41:17;2.73;;;2.53;;
21426;SDS011;10874;49.452;11.050;2023-12-29T00:43:44;3.40;;;2.40;;
21426;SDS011;10874;49.452;11.050;2023-12-29T00:46:13;3.10;;;2.47;;
21426;SDS011;10874;49.452;11.050;2023-12-29T00:48:40;3.73;;;2.93;;
21426;SDS011;10874;49.452;11.050;2023-12-29T00:51:07;3.23;;;2.93;;
21426;SDS011;10874;49.452;11.050;2023-12-29T00:53:35;2.90;;;2.60;;
21426;SDS011;10874;49.452;11.050;2023-12-29T00:56:02;3.87;;;2.93;;
21426;SDS011;10874;49.452;11.050;2023-12-29T00:58:29;2.70;;;2.27;;
21426;SDS011;10874;49.452;11.050;2023-12-29T01:00:56;3.73;;;2.80;;
21426;SDS011;10874;49.452;11.050;2023-12-29T01:03:23;4.73;;;2.70;;
21426;SDS011;10874;49.452;11.050;2023-12-29T01:05:52;3.10;;;2.77;;
21426;SDS011;10874;49.452;11.050;2023-12-29T01:08:19;3.50;;;2.40;;
21426;SDS011;10874;49.452;11.050;2023-12-29T01:10:46;5.20;;;3.17;;
21426;SDS011;10874;49.452;11.050;2023-12-29T01:13:12;4.07;;;3.00;;
21426;SDS011;10874;49.452;11.050;2023-12-29T01:15:39;35.30;;;22.73;;
21426;SDS011;10874;49.452;11.050;2023-12-29T01:18:07;14.40;;;9.47;;
21426;SDS011;10874;49.452;11.050;2023-12-29T01:20:34;22.53;;;14.60;;
21426;SDS011;10874;49.452;11.050;2023-12-29T01:23:01;7.40;;;5.13;;
21426;SDS011;10874;49.452;11.050;2023-12-29T01:25:27;5.20;;;3.13;;
21426;SDS011;10874;49.452;11.050;2023-12-29T01:27:55;3.90;;;2.77;;
21426;SDS011;10874;49.452;11.050;2023-12-29T01:30:22;3.93;;;2.50;;
21426;SDS011;10874;49.452;11.050;2023-12-29T01:32:49;3.50;;;2.90;;
21426;SDS011;10874;49.452;11.050;2023-12-29T01:35:16;4.47;;;2.97;;
21426;SDS011;10874;49.452;11.050;2023-12-29T01:37:45;2.77;;;2.50;;
21426;SDS011;10874;49.452;11.050;2023-12-29T01:40:12;3.20;;;2.27;;
21426;SDS011;10874;49.452;11.050;2023-12-29T01:42:39;4.87;;;2.60;;
21426;SDS011;10874;49.452;11.050;2023-12-29T01:45:06;3.77;;;2.47;;
21426;SDS011;10874;49.452;11.050;2023-12-29T01:47:40;2.50;;;2.30;;
21426;SDS011;10874;49.452;11.050;2023-12-29T01:50:07;3.30;;;2.40;;
21426;SDS011;10874;49.452;11.050;2023-12-29T01:52:35;3.67;;;2.50;;
21426;SDS011;10874;49.452;11.050;2023-12-29T01:55:02;3.37;;;2.57;;
21426;SDS011;10874;49.452;11.050;2023-12-29T01:57:29;2.97;;;2.60;;
21426;SDS011;10874;49.452;11.050;2023-12-29T01:59:56;3.00;;;2.70;;
21426;SDS011;10874;49.452;11.050;2023-12-29T02:02:22;3.13;;;2.57;;
21426;SDS011;10874;49.452;11.050;2023-12-29T02:04:49;2.20;;;2.00;;
21426;SDS011;10874;49.452;11.050;2023-12-29T02:07:16;2.20;;;2.00;;
21426;SDS011;10874;49.452;11.050;2023-12-29T02:09:44;2.50;;;2.30;;
21426;SDS011;10874;49.452;11.050;2023-12-29T02:12:12;2.40;;;2.20;;
21426;SDS011;10874;49.452;11.050;2023-12-29T02:14:39;2.40;;;1.93;;
21426;SDS011;10874;49.452;11.050;2023-12-29T02:17:10;2.23;;;2.03;;
21426;SDS011;10874;49.452;11.050;2023-12-29T02:19:42;1.80;;;1.70;;
21426;SDS011;10874;49.452;11.050;2023-12-29T02:22:11;2.90;;;2.40;;
21426;SDS011;10874;49.452;11.050;2023-12-29T02:24:38;2.83;;;2.50;;
21426;SDS011;10874;49.452;11.050;2023-12-29T02:27:18;5.70;;;2.70;;
21426;SDS011;10874;49.452;11.050;2023-12-29T02:30:07;4.20;;;2.90;;
21426;SDS011;10874;49.452;11.050;2023-12-29T02:32:36;2.90;;;2.60;;
21426;SDS011;10874;49.452;11.050;2023-12-29T02:35:05;2.57;;;2.37;;
21426;SDS011;10874;49.452;11.050;2023-12-29T02:37:35;3.80;;;2.43;;
21426;SDS011;10874;49.452;11.050;2023-12-29T02:40:02;3.60;;;2.83;;
21426;SDS011;10874;49.452;11.050;2023-12-29T02:42:30;5.53;;;3.30;;
21426;SDS011;10874;49.452;11.050;2023-12-29T02:44:56;3.37;;;3.00;;
21426;SDS011;10874;49.452;11.050;2023-12-29T02:47:23;4.83;;;3.10;;
21426;SDS011;10874;49.452;11.050;2023-12-29T02:49:50;3.00;;;2.70;;
21426;SDS011;10874;49.452;11.050;2023-12-29T02:52:17;3.90;;;3.20;;
21426;SDS011;10874;49.452;11.050;2023-12-29T02:54:44;3.23;;;2.93;;
21426;SDS011;10874;49.452;11.050;2023-12-29T02:57:11;3.53;;;3.07;;
21426;SDS011;10874;49.452;11.050;2023-12-29T02:59:38;3.43;;;3.13;;
21426;SDS011;10874;49.452;11.050;2023-12-29T03:02:05;3.93;;;3.40;;
21426;SDS011;10874;49.452;11.050;2023-12-29T03:04:32;4.23;;;3.53;;
21426;SDS011;10874;49.452;11.050;2023-12-29T03:06:59;4.40;;;3.73;;
21426;SDS011;10874;49.452;11.050;2023-12-29T03:09:26;4.80;;;3.70;;
21426;SDS011;10874;49.452;11.050;2023-12-29T03:11:53;4.10;;;3.70;;
21426;SDS011;10874;49.452;11.050;2023-12-29T03:14:19;3.93;;;3.63;;
21426;SDS011;10874;49.452;11.050;2023-12-29T03:16:46;4.50;;;3.67;;
21426;SDS011;10874;49.452;11.050;2023-12-29T03:19:13;5.17;;;4.00;;
21426;SDS011;10874;49.452;11.050;2023-12-29T03:21:40;4.50;;;3.50;;
21426;SDS011;10874;49.452;11.050;2023-12-29T03:24:09;4.03;;;3.67;;
21426;SDS011;10874;49.452;11.050;2023-12-29T03:26:36;5.30;;;3.50;;
21426;SDS011;10874;49.452;11.050;2023-12-29T03:29:03;4.07;;;3.67;;
21426;SDS011;10874;49.452;11.050;2023-12-29T03:31:30;5.30;;;3.80;;
21426;SDS011;10874;49.452;11.050;2023-12-29T03:33:57;3.93;;;3.47;;
21426;SDS011;10874;49.452;11.050;2023-12-29T03:36:24;4.57;;;3.60;;
21426;SDS011;10874;49.452;11.050;2023-12-29T03:38:51;4.20;;;3.80;;
21426;SDS011;10874;49.452;11.050;2023-12-29T03:41:17;6.37;;;3.90;;
21426;SDS011;10874;49.452;11.050;2023-12-29T03:43:46;4.37;;;3.97;;
21426;SDS011;10874;49.452;11.050;2023-12-29T03:46:18;5.07;;;4.03;;
21426;SDS011;10874;49.452;11.050;2023-12-29T03:48:45;5.03;;;3.70;;
21426;SDS011;10874;49.452;11.050;2023-12-29T03:51:12;5.80;;;4.00;;
21426;SDS011;10874;49.452;11.050;2023-12-29T03:53:39;4.27;;;3.87;;
21426;SDS011;10874;49.452;11.050;2023-12-29T03:56:07;4.43;;;4.03;;
21426;SDS011;10874;49.452;11.050;2023-12-29T03:58:35;5.93;;;4.20;;
21426;SDS011;10874;49.452;11.050;2023-12-29T04:01:02;4.70;;;3.87;;
21426;SDS011;10874;49.452;11.050;2023-12-29T04:03:28;5.60;;;4.03;;
21426;SDS011;10874;49.452;11.050;2023-12-29T04:05:56;4.40;;;3.70;;
21426;SDS011;10874;49.452;11.050;2023-12-29T04:08:23;5.10;;;3.90;;
21426;SDS011;10874;49.452;11.050;2023-12-29T04:10:50;4.47;;;3.80;;
21426;SDS011;10874;49.452;11.050;2023-12-29T04:13:17;5.50;;;4.27;;
21426;SDS011;10874;49.452;11.050;2023-12-29T04:15:44;4.90;;;4.03;;
21426;SDS011;10874;49.452;11.050;2023-12-29T04:18:11;4.90;;;4.20;;
21426;SDS011;10874;49.452;11.050;2023-12-29T04:20:39;5.83;;;4.07;;
21426;SDS011;10874;49.452;11.050;2023-12-29T04:23:06;4.97;;;3.33;;
21426;SDS011;10874;49.452;11.050;2023-12-29T04:25:33;4.07;;;3.67;;
21426;SDS011;10874;49.452;11.050;2023-12-29T04:28:04;4.33;;;3.93;;
21426;SDS011;10874;49.452;11.050;2023-12-29T04:30:31;4.97;;;4.10;;
21426;SDS011;10874;49.452;11.050;2023-12-29T04:32:58;4.40;;;4.00;;
21426;SDS011;10874;49.452;11.050;2023-12-29T04:35:24;3.90;;;3.10;;
21426;SDS011;10874;49.452;11.050;2023-12-29T04:37:51;4.00;;;3.60;;
21426;SDS011;10874;49.452;11.050;2023-12-29T04:40:18;4.17;;;3.77;;
21426;SDS011;10874;49.452;11.050;2023-12-29T04:42:45;4.60;;;4.20;;
21426;SDS011;10874;49.452;11.050;2023-12-29T04:45:12;5.10;;;4.40;;
21426;SDS011;10874;49.452;11.050;2023-12-29T04:47:39;6.20;;;4.50;;
21426;SDS011;10874;49.452;11.050;2023-12-29T04:50:06;4.80;;;4.17;;
21426;SDS011;10874;49.452;11.050;2023-12-29T04:52:33;4.40;;;4.00;;
21426;SDS011;10874;49.452;11.050;2023-12-29T04:55:00;4.20;;;3.60;;
21426;SDS011;10874;49.452;11.050;2023-12-29T04:57:27;3.80;;;3.30;;
21426;SDS011;10874;49.452;11.050;2023-12-29T04:59:54;4.83;;;3.53;;
21426;SDS011;10874;49.452;11.050;2023-12-29T05:02:21;3.43;;;3.07;;
21426;SDS011;10874;49.452;11.050;2023-12-29T05:04:48;3.83;;;3.47;;
21426;SDS011;10874;49.452;11.050;2023-12-29T05:07:15;4.00;;;3.60;;
21426;SDS011;10874;49.452;11.050;2023-12-29T05:09:41;4.00;;;3.60;;
21426;SDS011;10874;49.452;11.050;2023-12-29T05:12:09;4.20;;;3.80;;
21426;SDS011;10874;49.452;11.050;2023-12-29T05:14:35;4.93;;;3.83;;
21426;SDS011;10874;49.452;11.050;2023-12-29T05:17:02;3.43;;;2.70;;
21426;SDS011;10874;49.452;11.050;2023-12-29T05:19:29;3.43;;;3.13;;
21426;SDS011;10874;49.452;11.050;2023-12-29T05:21:56;3.90;;;3.50;;
21426;SDS011;10874;49.452;11.050;2023-12-29T05:24:23;3.57;;;3.20;;
21426;SDS011;10874;49.452;11.050;2023-12-29T05:26:49;3.83;;;3.30;;
21426;SDS011;10874;49.452;11.050;2023-12-29T05:29:16;5.03;;;4.20;;
21426;SDS011;10874;49.452;11.050;2023-12-29T05:31:43;4.30;;;3.90;;
21426;SDS011;10874;49.452;11.050;2023-12-29T05:34:10;4.70;;;4.23;;
21426;SDS011;10874;49.452;11.050;2023-12-29T05:36:37;4.47;;;3.60;;
21426;SDS011;10874;49.452;11.050;2023-12-29T05:39:04;4.57;;;3.83;;
21426;SDS011;10874;49.452;11.050;2023-12-29T05:41:32;4.27;;;3.50;;
21426;SDS011;10874;49.452;11.050;2023-12-29T05:43:59;4.60;;;3.50;;
21426;SDS011;10874;49.452;11.050;2023-12-29T05:46:27;4.07;;;3.77;;
21426;SDS011;10874;49.452;11.050;2023-12-29T05:48:54;4.00;;;3.60;;
21426;SDS011;10874;49.452;11.050;2023-12-29T05:51:21;4.90;;;4.33;;
21426;SDS011;10874;49.452;11.050;2023-12-29T05:53:48;4.37;;;3.97;;
21426;SDS011;10874;49.452;11.050;2023-12-29T05:56:15;4.17;;;3.77;;
21426;SDS011;10874;49.452;11.050;2023-12-29T05:58:42;4.17;;;3.60;;
21426;SDS011;10874;49.452;11.050;2023-12-29T06:01:11;4.03;;;3.63;;
21426;SDS011;10874;49.452;11.050;2023-12-29T06:03:38;4.43;;;3.23;;
21426;SDS011;10874;49.452;11.050;2023-12-29T06:06:05;4.00;;;3.40;;
21426;SDS011;10874;49.452;11.050;2023-12-29T06:08:32;3.97;;;3.47;;
21426;SDS011;10874;49.452;11.050;2023-12-29T06:10:59;4.90;;;3.60;;
21426;SDS011;10874;49.452;11.050;2023-12-29T06:13:27;4.13;;;3.73;;
21426;SDS011;10874;49.452;11.050;2023-12-29T06:15:54;4.57;;;4.17;;
21426;SDS011;10874;49.452;11.050;2023-12-29T06:18:21;5.03;;;4.00;;
21426;SDS011;10874;49.452;11.050;2023-12-29T06:20:48;5.40;;;4.40;;
21426;SDS011;10874;49.452;11.050;2023-12-29T06:23:14;4.87;;;4.37;;
21426;SDS011;10874;49.452;11.050;2023-12-29T06:25:43;5.83;;;4.30;;
21426;SDS011;10874;49.452;11.050;2023-12-29T06:28:10;7.03;;;4.33;;
21426;SDS011;10874;49.452;11.050;2023-12-29T06:30:37;5.10;;;4.33;;
21426;SDS011;10874;49.452;11.050;2023-12-29T06:33:03;4.60;;;4.20;;
21426;SDS011;10874;49.452;11.050;2023-12-29T06:35:31;6.37;;;4.60;;
21426;SDS011;10874;49.452;11.050;2023-12-29T06:37:57;5.70;;;4.50;;
21426;SDS011;10874;49.452;11.050;2023-12-29T06:40:25;5.17;;;4.30;;
21426;SDS011;10874;49.452;11.050;2023-12-29T06:42:53;4.47;;;4.07;;
21426;SDS011;10874;49.452;11.050;2023-12-29T06:45:19;4.97;;;4.47;;
21426;SDS011;10874;49.452;11.050;2023-12-29T06:47:46;4.30;;;4.00;;
21426;SDS011;10874;49.452;11.050;2023-12-29T06:50:13;4.87;;;4.43;;
21426;SDS011;10874;49.452;11.050;2023-12-29T06:52:40;5.80;;;4.50;;
21426;SDS011;10874;49.452;11.050;2023-12-29T06:55:07;5.17;;;4.67;;
21426;SDS011;10874;49.452;11.050;2023-12-29T06:57:35;5.47;;;4.57;;
21426;SDS011;10874;49.452;11.050;2023-12-29T07:00:02;6.00;;;5.00;;
21426;SDS011;10874;49.452;11.050;2023-12-29T07:02:29;4.97;;;4.30;;
21426;SDS011;10874;49.452;11.050;2023-12-29T07:04:56;5.23;;;4.70;;
21426;SDS011;10874;49.452;11.050;2023-12-29T07:07:23;4.83;;;4.33;;
21426;SDS011;10874;49.452;11.050;2023-12-29T07:09:51;6.33;;;5.27;;
21426;SDS011;10874;49.452;11.050;2023-12-29T07:12:18;7.20;;;5.53;;
21426;SDS011;10874;49.452;11.050;2023-12-29T07:14:45;6.57;;;5.30;;
21426;SDS011;10874;49.452;11.050;2023-12-29T07:17:11;7.93;;;5.40;;
21426;SDS011;10874;49.452;11.050;2023-12-29T07:19:38;6.87;;;4.90;;
21426;SDS011;10874;49.452;11.050;2023-12-29T07:22:05;6.17;;;4.53;;
21426;SDS011;10874;49.452;11.050;2023-12-29T07:24:32;7.57;;;5.00;;
21426;SDS011;10874;49.452;11.050;2023-12-29T07:27:00;8.83;;;5.60;;
21426;SDS011;10874;49.452;11.050;2023-12-29T07:29:26;6.03;;;4.97;;
21426;SDS011;10874;49.452;11.050;2023-12-29T07:31:53;6.87;;;5.23;;
21426;SDS011;10874;49.452;11.050;2023-12-29T07:34:20;8.17;;;5.70;;
21426;SDS011;10874;49.452;11.050;2023-12-29T07:36:47;6.67;;;5.43;;
21426;SDS011;10874;49.452;11.050;2023-12-29T07:39:15;6.60;;;5.90;;
21426;SDS011;10874;49.452;11.050;2023-12-29T07:41:41;7.60;;;5.90;;
21426;SDS011;10874;49.452;11.050;2023-12-29T07:44:12;7.60;;;5.90;;
21426;SDS011;10874;49.452;11.050;2023-12-29T07:46:39;8.27;;;6.00;;
21426;SDS011;10874;49.452;11.050;2023-12-29T07:49:06;6.40;;;5.60;;
21426;SDS011;10874;49.452;11.050;2023-12-29T07:51:33;8.20;;;5.97;;
21426;SDS011;10874;49.452;11.050;2023-12-29T07:54:00;7.90;;;6.13;;
21426;SDS011;10874;49.452;11.050;2023-12-29T07:56:27;9.07;;;5.87;;
21426;SDS011;10874;49.452;11.050;2023-12-29T07:58:54;9.50;;;6.23;;
21426;SDS011;10874;49.452;11.050;2023-12-29T08:01:21;9.20;;;5.27;;
21426;SDS011;10874;49.452;11.050;2023-12-29T08:03:48;8.03;;;5.73;;
21426;SDS011;10874;49.452;11.050;2023-12-29T08:06:14;8.70;;;5.30;;
21426;SDS011;10874;49.452;11.050;2023-12-29T08:08:42;7.03;;;5.03;;
21426;SDS011;10874;49.452;11.050;2023-12-29T08:11:15;5.93;;;4.70;;
21426;SDS011;10874;49.452;11.050;2023-12-29T08:13:43;6.07;;;3.77;;
21426;SDS011;10874;49.452;11.050;2023-12-29T08:16:10;5.30;;;4.20;;
21426;SDS011;10874;49.452;11.050;2023-12-29T08:18:37;4.67;;;4.00;;
21426;SDS011;10874;49.452;11.050;2023-12-29T08:21:04;5.10;;;3.20;;
21426;SDS011;10874;49.452;11.050;2023-12-29T08:23:31;3.93;;;3.20;;
21426;SDS011;10874;49.452;11.050;2023-12-29T08:25:58;3.47;;;2.47;;
21426;SDS011;10874;49.452;11.050;2023-12-29T08:28:25;2.17;;;1.77;;
21426;SDS011;10874;49.452;11.050;2023-12-29T08:30:52;2.10;;;1.90;;
21426;SDS011;10874;49.452;11.050;2023-12-29T08:33:19;2.50;;;1.60;;
21426;SDS011;10874;49.452;11.050;2023-12-29T08:35:46;2.27;;;1.60;;
21426;SDS011;10874;49.452;11.050;2023-12-29T08:38:12;1.73;;;1.53;;
21426;SDS011;10874;49.452;11.050;2023-12-29T08:40:40;2.07;;;1.80;;
21426;SDS011;10874;49.452;11.050;2023-12-29T08:43:07;3.57;;;1.43;;
21426;SDS011;10874;49.452;11.050;2023-12-29T08:45:34;1.70;;;1.50;;
21426;SDS011;10874;49.452;11.050;2023-12-29T08:48:02;1.63;;;1.53;;
21426;SDS011;10874;49.452;11.050;2023-12-29T08:50:30;1.40;;;1.30;;
21426;SDS011;10874;49.452;11.050;2023-12-29T08:52:57;1.23;;;1.13;;
21426;SDS011;10874;49.452;11.050;2023-12-29T08:55:23;1.40;;;1.30;;
21426;SDS011;10874;49.452;11.050;2023-12-29T08:57:50;1.83;;;1.60;;
21426;SDS011;10874;49.452;11.050;2023-12-29T09:00:17;1.37;;;1.27;;
21426;SDS011;10874;49.452;11.050;2023-12-29T09:02:44;1.30;;;1.13;;
21426;SDS011;10874;49.452;11.050;2023-12-29T09:05:11;1.93;;;1.30;;
21426;SDS011;10874;49.452;11.050;2023-12-29T09:07:38;2.17;;;1.50;;
21426;SDS011;10874;49.452;11.050;2023-12-29T09:10:05;2.67;;;1.90;;
21426;SDS011;10874;49.452;11.050;2023-12-29T09:12:35;1.93;;;1.63;;
21426;SDS011;10874;49.452;11.050;2023-12-29T09:15:02;1.53;;;1.40;;
21426;SDS011;10874;49.452;11.050;2023-12-29T09:17:29;1.60;;;1.40;;
21426;SDS011;10874;49.452;11.050;2023-12-29T09:19:56;1.50;;;1.40;;
21426;SDS011;10874;49.452;11.050;2023-12-29T09:22:35;1.97;;;1.43;;
21426;SDS011;10874;49.452;11.050;2023-12-29T09:25:02;1.50;;;1.17;;
21426;SDS011;10874;49.452;11.050;2023-12-29T09:27:29;1.47;;;1.37;;
21426;SDS011;10874;49.452;11.050;2023-12-29T09:29:56;1.20;;;1.10;;
21426;SDS011;10874;49.452;11.050;2023-12-29T09:32:23;1.50;;;1.40;;
21426;SDS011;10874;49.452;11.050;2023-12-29T09:34:49;1.40;;;1.30;;
21426;SDS011;10874;49.452;11.050;2023-12-29T09:37:17;1.33;;;1.23;;
21426;SDS011;10874;49.452;11.050;2023-12-29T09:39:43;2.27;;;1.30;;
21426;SDS011;10874;49.452;11.050;2023-12-29T09:42:12;1.40;;;1.30;;
21426;SDS011;10874;49.452;11.050;2023-12-29T09:44:40;1.40;;;1.30;;
21426;SDS011;10874;49.452;11.050;2023-12-29T09:47:08;1.53;;;1.30;;
21426;SDS011;10874;49.452;11.050;2023-12-29T09:49:39;1.30;;;1.20;;
21426;SDS011;10874;49.452;11.050;2023-12-29T09:52:07;2.30;;;1.40;;
21426;SDS011;10874;49.452;11.050;2023-12-29T09:54:35;1.60;;;1.50;;
21426;SDS011;10874;49.452;11.050;2023-12-29T09:57:06;1.43;;;1.33;;
21426;SDS011;10874;49.452;11.050;2023-12-29T09:59:34;1.70;;;1.60;;
21426;SDS011;10874;49.452;11.050;2023-12-29T10:02:04;1.73;;;1.63;;
21426;SDS011;10874;49.452;11.050;2023-12-29T10:04:31;1.67;;;1.40;;
21426;SDS011;10874;49.452;11.050;2023-12-29T10:07:01;1.60;;;1.43;;
21426;SDS011;10874;49.452;11.050;2023-12-29T10:09:31;1.70;;;1.50;;
21426;SDS011;10874;49.452;11.050;2023-12-29T10:11:59;1.70;;;1.40;;
21426;SDS011;10874;49.452;11.050;2023-12-29T10:14:45;1.90;;;1.53;;
21426;SDS011;10874;49.452;11.050;2023-12-29T10:17:25;1.50;;;1.40;;
21426;SDS011;10874;49.452;11.050;2023-12-29T10:20:00;2.27;;;1.43;;
21426;SDS011;10874;49.452;11.050;2023-12-29T10:22:36;1.63;;;1.53;;
21426;SDS011;10874;49.452;11.050;2023-12-29T10:25:07;1.60;;;1.50;;
21426;SDS011;10874;49.452;11.050;2023-12-29T10:27:35;1.70;;;1.53;;
21426;SDS011;10874;49.452;11.050;2023-12-29T10:30:01;2.50;;;1.60;;
21426;SDS011;10874;49.452;11.050;2023-12-29T10:32:30;1.40;;;1.30;;
21426;SDS011;10874;49.452;11.050;2023-12-29T10:35:09;1.50;;;1.30;;
21426;SDS011;10874;49.452;11.050;2023-12-29T10:37:37;2.73;;;1.80;;
21426;SDS011;10874;49.452;11.050;2023-12-29T10:40:05;2.70;;;1.70;;
21426;SDS011;10874;49.452;11.050;2023-12-29T10:42:32;2.23;;;2.03;;
21426;SDS011;10874;49.452;11.050;2023-12-29T10:45:05;2.13;;;1.93;;
21426;SDS011;10874;49.452;11.050;2023-12-29T10:47:33;3.30;;;3.00;;
21426;SDS011;10874;49.452;11.050;2023-12-29T10:50:02;7.30;;;3.30;;
21426;SDS011;10874;49.452;11.050;2023-12-29T10:52:31;4.17;;;3.67;;
21426;SDS011;10874;49.452;11.050;2023-12-29T10:55:07;5.50;;;4.23;;
21426;SDS011;10874;49.452;11.050;2023-12-29T10:57:35;4.17;;;3.87;;
21426;SDS011;10874;49.452;11.050;2023-12-29T11:00:02;4.40;;;4.00;;
21426;SDS011;10874;49.452;11.050;2023-12-29T11:02:40;4.37;;;3.97;;
21426;SDS011;10874;49.452;11.050;2023-12-29T11:05:07;5.20;;;4.23;;
21426;SDS011;10874;49.452;11.050;2023-12-29T11:07:36;4.60;;;4.20;;
21426;SDS011;10874;49.452;11.050;2023-12-29T11:10:06;5.90;;;4.00;;
21426;SDS011;10874;49.452;11.050;2023-12-29T11:12:37;4.83;;;4.30;;
21426;SDS011;10874;49.452;11.050;2023-12-29T11:15:05;5.67;;;4.57;;
21426;SDS011;10874;49.452;11.050;2023-12-29T11:17:33;4.67;;;3.87;;
21426;SDS011;10874;49.452;11.050;2023-12-29T11:20:00;4.60;;;3.80;;
21426;SDS011;10874;49.452;11.050;2023-12-29T11:22:28;5.27;;;4.00;;
21426;SDS011;10874;49.452;11.050;2023-12-29T11:24:56;5.53;;;4.00;;
21426;SDS011;10874;49.452;11.050;2023-12-29T11:27:25;6.43;;;4.33;;
21426;SDS011;10874;49.452;11.050;2023-12-29T11:29:53;8.47;;;4.63;;
21426;SDS011;10874;49.452;11.050;2023-12-29T11:32:22;4.93;;;3.83;;
21426;SDS011;10874;49.452;11.050;2023-12-29T11:34:53;5.50;;;3.70;;
21426;SDS011;10874;49.452;11.050;2023-12-29T11:37:26;5.37;;;3.97;;
21426;SDS011;10874;49.452;11.050;2023-12-29T11:39:58;4.83;;;4.33;;
21426;SDS011;10874;49.452;11.050;2023-12-29T11:42:31;5.53;;;4.20;;
21426;SDS011;10874;49.452;11.050;2023-12-29T11:47:45;5.93;;;4.60;;
21426;SDS011;10874;49.452;11.050;2023-12-29T11:50:12;4.27;;;3.87;;
21426;SDS011;10874;49.452;11.050;2023-12-29T11:52:39;5.00;;;3.83;;
21426;SDS011;10874;49.452;11.050;2023-12-29T11:55:10;5.17;;;3.97;;
21426;SDS011;10874;49.452;11.050;2023-12-29T11:57:37;4.53;;;3.93;;
21426;SDS011;10874;49.452;11.050;2023-12-29T12:00:06;4.50;;;3.37;;
21426;SDS011;10874;49.452;11.050;2023-12-29T12:02:37;4.33;;;3.10;;
21426;SDS011;10874;49.452;11.050;2023-12-29T12:05:04;3.47;;;3.10;;
21426;SDS011;10874;49.452;11.050;2023-12-29T12:12:44;3.10;;;2.80;;
21426;SDS011;10874;49.452;11.050;2023-12-29T12:17:56;2.97;;;1.83;;
21426;SDS011;10874;49.452;11.050;2023-12-29T12:20:23;1.80;;;1.70;;
21426;SDS011;10874;49.452;11.050;2023-12-29T12:22:57;1.70;;;1.60;;
21426;SDS011;10874;49.452;11.050;2023-12-29T12:25:25;2.30;;;1.10;;
21426;SDS011;10874;49.452;11.050;2023-12-29T12:27:53;1.10;;;1.10;;
21426;SDS011;10874;49.452;11.050;2023-12-29T12:30:20;2.80;;;1.30;;
21426;SDS011;10874;49.452;11.050;2023-12-29T12:32:56;1.43;;;1.10;;
21426;SDS011;10874;49.452;11.050;2023-12-29T12:35:23;1.50;;;1.30;;
21426;SDS011;10874;49.452;11.050;2023-12-29T12:38:09;1.53;;;1.30;;
21426;SDS011;10874;49.452;11.050;2023-12-29T12:40:36;2.80;;;1.10;;
21426;SDS011;10874;49.452;11.050;2023-12-29T12:43:04;1.70;;;1.20;;
21426;SDS011;10874;49.452;11.050;2023-12-29T12:45:33;1.30;;;1.20;;
21426;SDS011;10874;49.452;11.050;2023-12-29T12:48:12;1.50;;;1.40;;
21426;SDS011;10874;49.452;11.050;2023-12-29T12:50:46;4.37;;;3.77;;
21426;SDS011;10874;49.452;11.050;2023-12-29T12:53:14;3.80;;;3.00;;
21426;SDS011;10874;49.452;11.050;2023-12-29T12:55:50;4.20;;;1.90;;
21426;SDS011;10874;49.452;11.050;2023-12-29T12:58:17;1.63;;;1.03;;
21426;SDS011;10874;49.452;11.050;2023-12-29T13:00:45;1.33;;;1.17;;
21426;SDS011;10874;49.452;11.050;2023-12-29T13:03:15;1.87;;;1.23;;
21426;SDS011;10874;49.452;11.050;2023-12-29T13:05:42;1.57;;;1.27;;
21426;SDS011;10874;49.452;11.050;2023-12-29T13:08:11;1.40;;;1.10;;
21426;SDS011;10874;49.452;11.050;2023-12-29T13:10:41;1.20;;;1.10;;
21426;SDS011;10874;49.452;11.050;2023-12-29T13:13:09;3.27;;;1.60;;
21426;SDS011;10874;49.452;11.050;2023-12-29T13:15:44;1.97;;;1.30;;
21426;SDS011;10874;49.452;11.050;2023-12-29T13:18:11;2.10;;;1.90;;
21426;SDS011;10874;49.452;11.050;2023-12-29T13:20:47;2.23;;;1.90;;
21426;SDS011;10874;49.452;11.050;2023-12-29T13:23:14;1.37;;;1.27;;
21426;SDS011;10874;49.452;11.050;2023-12-29T13:25:44;1.53;;;1.40;;
21426;SDS011;10874;49.452;11.050;2023-12-29T13:28:13;1.60;;;1.40;;
21426;SDS011;10874;49.452;11.050;2023-12-29T13:30:40;2.00;;;1.30;;
21426;SDS011;10874;49.452;11.050;2023-12-29T13:33:09;1.47;;;1.30;;
21426;SDS011;10874;49.452;11.050;2023-12-29T13:35:39;1.33;;;1.23;;
21426;SDS011;10874;49.452;11.050;2023-12-29T13:38:32;1.97;;;1.10;;
21426;SDS011;10874;49.452;11.050;2023-12-29T13:41:01;1.30;;;1.20;;
21426;SDS011;10874;49.452;11.050;2023-12-29T13:43:29;1.50;;;1.20;;
21426;SDS011;10874;49.452;11.050;2023-12-29T13:45:57;1.40;;;1.30;;
21426;SDS011;10874;49.452;11.050;2023-12-29T13:48:24;1.40;;;1.30;;
21426;SDS011;10874;49.452;11.050;2023-12-29T13:50:52;1.57;;;1.30;;
21426;SDS011;10874;49.452;11.050;2023-12-29T13:53:19;1.40;;;1.30;;
21426;SDS011;10874;49.452;11.050;2023-12-29T13:55:46;4.20;;;2.50;;
21426;SDS011;10874;49.452;11.050;2023-12-29T13:58:13;1.77;;;1.60;;
21426;SDS011;10874;49.452;11.050;2023-12-29T14:00:40;2.10;;;1.80;;
21426;SDS011;10874;49.452;11.050;2023-12-29T14:03:10;1.90;;;1.63;;
21426;SDS011;10874;49.452;11.050;2023-12-29T14:05:47;2.20;;;1.90;;
21426;SDS011;10874;49.452;11.050;2023-12-29T14:10:47;1.33;;;1.20;;
21426;SDS011;10874;49.452;11.050;2023-12-29T14:13:14;1.33;;;1.17;;
21426;SDS011;10874;49.452;11.050;2023-12-29T14:15:42;1.40;;;1.30;;
21426;SDS011;10874;49.452;11.050;2023-12-29T14:20:39;1.10;;;1.00;;
21426;SDS011;10874;49.452;11.050;2023-12-29T14:23:06;2.30;;;1.40;;
21426;SDS011;10874;49.452;11.050;2023-12-29T14:25:33;2.27;;;1.77;;
21426;SDS011;10874;49.452;11.050;2023-12-29T14:28:24;1.70;;;1.60;;
21426;SDS011;10874;49.452;11.050;2023-12-29T14:30:49;2.00;;;1.50;;
21426;SDS011;10874;49.452;11.050;2023-12-29T14:33:17;4.47;;;2.17;;
21426;SDS011;10874;49.452;11.050;2023-12-29T14:35:44;2.93;;;1.83;;
21426;SDS011;10874;49.452;11.050;2023-12-29T14:38:10;3.17;;;2.20;;
21426;SDS011;10874;49.452;11.050;2023-12-29T14:40:44;2.43;;;1.80;;
21426;SDS011;10874;49.452;11.050;2023-12-29T14:43:11;3.73;;;1.90;;
21426;SDS011;10874;49.452;11.050;2023-12-29T14:45:38;2.50;;;1.60;;
21426;SDS011;10874;49.452;11.050;2023-12-29T14:48:06;1.67;;;1.50;;
21426;SDS011;10874;49.452;11.050;2023-12-29T14:50:33;1.63;;;1.43;;
21426;SDS011;10874;49.452;11.050;2023-12-29T14:53:00;1.30;;;1.20;;
21426;SDS011;10874;49.452;11.050;2023-12-29T14:55:27;1.10;;;1.10;;